Historique des stations

Station météo de Culan

Altitude de la station : 276 m







Données météorologiques pour le 02/03/2021
Date
Heure
Températures Humidité Point de rosée Vitesse
du vent
Direction Rafales Windchill Pression Pluviométrie
Cumul
Date
Heure
Températures Humidité Point de rosée Vitesse
du vent
Direction Rafales Windchill Pression Pluviométrie
Cumul
02/03/2021 14:2917.4 °C54 %7.8 °C-NE6 km/h17.2 1027 hPa-
02/03/2021 14:1417.4 °C55 %8.3 °C-NNE6 km/h17.2 1027 hPa-
02/03/2021 13:5917.2 °C57 %8.3 °C-N6 km/h17.2 1027 hPa-
02/03/2021 13:4416.9 °C58 %8.3 °C-NNE6 km/h17.2 1027 hPa-
02/03/2021 13:2916.7 °C60 %8.9 °C-N6 km/h16.7 1027 hPa-
02/03/2021 13:1416.4 °C59 %8.3 °C-N6 km/h16.7 1027 hPa-
02/03/2021 12:5915.8 °C60 %7.8 °C-SE6 km/h15.6 1027 hPa-
02/03/2021 12:4515.1 °C63 %7.8 °C-SE6 km/h15.0 1027 hPa-
02/03/2021 12:3014.8 °C63 %7.8 °C-SE6 km/h15.0 1027 hPa-
02/03/2021 12:1514.4 °C67 %8.3 °C-ESE6 km/h14.4 1027 hPa-
02/03/2021 12:0014.1 °C69 %8.3 °C-SE6 km/h13.9 1027 hPa-
02/03/2021 11:4513.9 °C67 %7.8 °C-ENE6 km/h13.9 1027 hPa-
02/03/2021 11:3014.1 °C64 %7.2 °C-S6 km/h13.9 1027 hPa-
02/03/2021 11:1513.8 °C66 %7.2 °C-S6 km/h13.9 1027 hPa-
02/03/2021 11:0012.6 °C68 %6.7 °C-S6 km/h12.8 1027 hPa-
02/03/2021 10:4511.8 °C68 %6.1 °C-S6 km/h11.7 1027 hPa-
02/03/2021 10:2910.7 °C72 %6.1 °C-S6 km/h10.6 1027 hPa-
02/03/2021 10:149.5 °C73 %5.0 °C-S6 km/h9.4 1027 hPa-
02/03/2021 09:598.0 °C79 %4.4 °C-S6 km/h7.8 1027 hPa-
02/03/2021 09:447.1 °C78 %3.3 °C-S6 km/h7.2 1027 hPa-
02/03/2021 09:295.8 °C81 %2.8 °C-S6 km/h5.6 1027 hPa-
02/03/2021 09:144.6 °C84 %2.2 °C-S6 km/h4.4 1027 hPa-
02/03/2021 08:593.6 °C86 %1.7 °C-S6 km/h3.3 1027 hPa-
02/03/2021 08:442.8 °C87 %1.1 °C-S6 km/h2.8 1027 hPa-
02/03/2021 08:292.1 °C88 %0.6 °C-S6 km/h2.2 1027 hPa-
02/03/2021 08:141.5 °C89 %0.0 °C-S6 km/h1.7 1026 hPa-
02/03/2021 07:591.1 °C89 %-0.6 °C-S6 km/h1.1 1026 hPa-
02/03/2021 07:441.2 °C88 %-0.6 °C-S6 km/h1.1 1026 hPa-
02/03/2021 07:291.3 °C88 %-0.6 °C-S6 km/h1.1 1026 hPa-
02/03/2021 07:141.3 °C89 %0.0 °C-S6 km/h1.1 1026 hPa-
02/03/2021 06:591.1 °C89 %-0.6 °C-S6 km/h1.1 1026 hPa-
02/03/2021 06:441.2 °C89 %-0.6 °C-S6 km/h1.1 1026 hPa-
02/03/2021 06:301.3 °C89 %0.0 °C-S6 km/h1.1 1026 hPa-
02/03/2021 06:141.4 °C89 %0.0 °C-S6 km/h1.7 1026 hPa-
02/03/2021 05:591.2 °C90 %0.0 °C-S6 km/h1.1 1026 hPa-
02/03/2021 05:441.2 °C88 %-0.6 °C-S6 km/h1.1 1026 hPa-
02/03/2021 05:301.6 °C88 %0.0 °C-S6 km/h1.7 1026 hPa-
02/03/2021 05:152.0 °C88 %0.0 °C-S6 km/h2.2 1026 hPa-
02/03/2021 05:002.1 °C88 %0.6 °C-S6 km/h2.2 1025 hPa-
02/03/2021 04:452.2 °C88 %0.6 °C-S6 km/h2.2 1025 hPa-
02/03/2021 04:302.3 °C87 %0.6 °C-S6 km/h2.2 1025 hPa-
02/03/2021 04:152.5 °C87 %0.6 °C-S6 km/h2.8 1026 hPa-
02/03/2021 04:002.8 °C87 %1.1 °C-S3 km/h2.8 1025 hPa-
02/03/2021 03:452.9 °C88 %1.1 °C-S3 km/h2.8 1025 hPa-
02/03/2021 03:302.7 °C88 %1.1 °C-S3 km/h2.8 1025 hPa-
02/03/2021 03:152.9 °C87 %1.1 °C-SSE3 km/h2.8 1025 hPa-
02/03/2021 03:003.1 °C88 %1.1 °C---3.3 1026 hPa-
02/03/2021 02:453.1 °C88 %1.1 °C---3.3 1025 hPa-
02/03/2021 02:303.2 °C88 %1.7 °C---3.3 1025 hPa-
02/03/2021 02:153.2 °C89 %1.7 °C---3.3 1025 hPa-
02/03/2021 02:003.1 °C88 %1.1 °C---3.3 1025 hPa-
02/03/2021 01:453.2 °C87 %1.1 °C---3.3 1025 hPa-
02/03/2021 01:303.5 °C88 %1.7 °C---3.3 1025 hPa-
02/03/2021 01:153.6 °C87 %1.7 °C---3.3 1025 hPa-
02/03/2021 00:593.9 °C85 %1.7 °C---3.9 1025 hPa-
02/03/2021 00:444.6 °C85 %2.2 °C---4.4 1025 hPa-
02/03/2021 00:294.9 °C86 %2.8 °C---5.0 1025 hPa-
02/03/2021 00:144.8 °C86 %2.8 °C---5.0 1025 hPa-


Minima :

Température : 1.1 °C
Humidité : 54 %
Point de rosée : -0.6 °C
Vent moyen : - km/h
Windchill : 1.1
Pression atm. : 1025 hPa
Maxima :

Température : 17.4 °C
Humidité : 90 %
Point de rosée : 8.9 °C
Vent moyen : 0 km/h
Windchill : 17.2
Pression atm. : 1027 hPa
Rafales max : 6 km/h
Cumul de pluie sur 24H : 0 mm

Culan est une commune du département Cher (18).
La station météorologique du réseau de l'association la plus proche de Culan est celle de Beddes



Icône Facebook Association Météo Centre Icône Twitter Association Météo Centre Icône Chaîne Youtube Association Météo Centre Icône contact Association Météo Centre Icône Insta Association Météo Centre